KHFY

Details ICAO KHFY
Name Greenwood Muni
Region United States
Timezone America/Indiana/Indianapolis (UTC-5.0)
Plans Departing 10
Arriving 9
Stats Elevation 822 ft / 251 m (AMSL)
Location 39.627611° -86.088027°
Runways 1
Magnetic Variation 4.769° W
Sunrise 2017-12-12 12:57:23 UTC / 2017-12-12 07:57:23 Local
Sunset 2017-12-12 22:21:52 UTC / 2017-12-12 17:21:52 Local
Advertisement - Login to hide

Runways

ID Width Length Bearing (true) Bearing (mag) Surface Threshold Offset Overrun Length
01 75 ft / 23 m 4,909 ft / 1,496 m 7.62° 12.39° Asphalt 0 ft / 0 m 0 ft / 0 m
19 75 ft / 23 m 4,909 ft / 1,496 m 187.62° 192.39° Asphalt 0 ft / 0 m 0 ft / 0 m

Map

Weather


0- 5 10 15 20 25 30 35+ Temperature / ° C

Clouds and Precipitation
Forecast for 2017-12-12 06:00 UTC. Updated 2 hours ago

Ground ~20,000 ft ~40,000 ft Winds

METAR

KHFY 120655Z AUTO 32014G20KT 10SM OVC013 03/00 A2984 RMK AO2 T00330000

TAF

Not found

Frequencies

Recorded 118.52 MHz AWOS 3
Approach 124.95 MHz INDIANAPOLIS APP/DEP
Unicom 123.00 MHz CTAF/UNICOM
Warning: Do not use this data for real-world aviation or navigation. No guarantee of current accuracy is given.